BAM weather

Public forecast

Using degrees Fahrenheit for public forecast. Weather courtesy of forecast.io.

Closest aviation weather report (METAR) to Battle Mountain Airport

Closest report is Winnemucca Municipal Airport, 46.0 nm (85.2 km) WNW. Retrieved 2020/08/13 16:56 UTC (7 minutes ago):

KWMC 131656Z AUTO VRB04KT 10SM CLR 27/M07 A3015 RMK AO2 SLP154 T02721072

Aviation forecast (TAF) for Battle Mountain Airport

Retrieved 2020/08/13 12:22 UTC (5 hours ago):

TAF KBAM 131120Z 1312/1412 VRB05KT P6SM FEW250 FM132000 24011G20KT P6SM SKC FM140100 29013KT P6SM SKC FM140500 VRB03KT P6SM SKC